sensor_id;sensor_type;location;lat;lon;timestamp;P1;durP1;ratioP1;P2;durP2;ratioP2
19113;SDS011;9689;51.052;13.772;2022-12-11T00:04:12;48.72;;;21.42;;
19113;SDS011;9689;51.052;13.772;2022-12-11T00:09:12;54.50;;;21.75;;
19113;SDS011;9689;51.052;13.772;2022-12-11T00:14:15;53.95;;;21.70;;
19113;SDS011;9689;51.052;13.772;2022-12-11T00:19:15;48.10;;;21.05;;
19113;SDS011;9689;51.052;13.772;2022-12-11T00:24:17;47.85;;;21.92;;
19113;SDS011;9689;51.052;13.772;2022-12-11T00:29:19;45.80;;;20.48;;
19113;SDS011;9689;51.052;13.772;2022-12-11T00:34:21;49.50;;;20.30;;
19113;SDS011;9689;51.052;13.772;2022-12-11T00:39:22;52.50;;;19.95;;
19113;SDS011;9689;51.052;13.772;2022-12-11T00:44:24;46.58;;;20.63;;
19113;SDS011;9689;51.052;13.772;2022-12-11T00:49:25;54.88;;;22.30;;
19113;SDS011;9689;51.052;13.772;2022-12-11T00:54:26;49.20;;;21.77;;
19113;SDS011;9689;51.052;13.772;2022-12-11T00:59:28;53.80;;;21.15;;
19113;SDS011;9689;51.052;13.772;2022-12-11T01:04:29;50.55;;;20.92;;
19113;SDS011;9689;51.052;13.772;2022-12-11T01:09:30;51.38;;;21.08;;
19113;SDS011;9689;51.052;13.772;2022-12-11T01:14:52;51.78;;;20.77;;
19113;SDS011;9689;51.052;13.772;2022-12-11T01:19:53;47.42;;;19.58;;
19113;SDS011;9689;51.052;13.772;2022-12-11T01:24:54;50.53;;;20.98;;
19113;SDS011;9689;51.052;13.772;2022-12-11T01:29:56;51.30;;;20.45;;
19113;SDS011;9689;51.052;13.772;2022-12-11T01:34:57;45.63;;;19.30;;
19113;SDS011;9689;51.052;13.772;2022-12-11T01:39:58;52.22;;;20.63;;
19113;SDS011;9689;51.052;13.772;2022-12-11T01:50:27;46.17;;;19.45;;
19113;SDS011;9689;51.052;13.772;2022-12-11T01:55:31;45.90;;;20.40;;
19113;SDS011;9689;51.052;13.772;2022-12-11T02:00:33;47.20;;;20.38;;
19113;SDS011;9689;51.052;13.772;2022-12-11T02:05:34;45.55;;;19.23;;
19113;SDS011;9689;51.052;13.772;2022-12-11T02:10:47;50.70;;;20.52;;
19113;SDS011;9689;51.052;13.772;2022-12-11T02:15:56;52.55;;;19.75;;
19113;SDS011;9689;51.052;13.772;2022-12-11T02:21:06;49.75;;;19.75;;
19113;SDS011;9689;51.052;13.772;2022-12-11T02:26:17;45.80;;;18.92;;
19113;SDS011;9689;51.052;13.772;2022-12-11T02:31:33;42.50;;;18.40;;
19113;SDS011;9689;51.052;13.772;2022-12-11T02:36:39;40.85;;;17.38;;
19113;SDS011;9689;51.052;13.772;2022-12-11T02:41:44;41.22;;;18.13;;
19113;SDS011;9689;51.052;13.772;2022-12-11T02:46:49;43.53;;;18.40;;
19113;SDS011;9689;51.052;13.772;2022-12-11T02:51:51;35.30;;;15.98;;
19113;SDS011;9689;51.052;13.772;2022-12-11T02:56:55;40.40;;;16.88;;
19113;SDS011;9689;51.052;13.772;2022-12-11T03:02:04;38.65;;;17.13;;
19113;SDS011;9689;51.052;13.772;2022-12-11T03:07:07;38.55;;;16.50;;
19113;SDS011;9689;51.052;13.772;2022-12-11T03:12:12;39.15;;;16.23;;
19113;SDS011;9689;51.052;13.772;2022-12-11T03:17:20;39.67;;;16.65;;
19113;SDS011;9689;51.052;13.772;2022-12-11T03:22:23;31.08;;;14.98;;
19113;SDS011;9689;51.052;13.772;2022-12-11T03:27:32;41.22;;;16.30;;
19113;SDS011;9689;51.052;13.772;2022-12-11T03:32:39;43.35;;;17.17;;
19113;SDS011;9689;51.052;13.772;2022-12-11T03:37:45;37.80;;;16.70;;
19113;SDS011;9689;51.052;13.772;2022-12-11T03:42:51;43.83;;;16.60;;
19113;SDS011;9689;51.052;13.772;2022-12-11T03:47:57;40.60;;;18.13;;
19113;SDS011;9689;51.052;13.772;2022-12-11T03:53:01;44.13;;;17.67;;
19113;SDS011;9689;51.052;13.772;2022-12-11T03:58:04;39.15;;;17.02;;
19113;SDS011;9689;51.052;13.772;2022-12-11T04:03:06;45.95;;;17.17;;
19113;SDS011;9689;51.052;13.772;2022-12-11T04:08:14;41.47;;;17.40;;
19113;SDS011;9689;51.052;13.772;2022-12-11T04:13:15;38.55;;;16.60;;
19113;SDS011;9689;51.052;13.772;2022-12-11T04:18:17;40.10;;;16.73;;
19113;SDS011;9689;51.052;13.772;2022-12-11T04:23:36;36.28;;;15.85;;
19113;SDS011;9689;51.052;13.772;2022-12-11T04:28:54;36.83;;;16.10;;
19113;SDS011;9689;51.052;13.772;2022-12-11T04:33:57;37.28;;;16.20;;
19113;SDS011;9689;51.052;13.772;2022-12-11T04:38:57;36.75;;;16.38;;
19113;SDS011;9689;51.052;13.772;2022-12-11T04:43:58;36.22;;;15.82;;
19113;SDS011;9689;51.052;13.772;2022-12-11T04:49:01;30.30;;;13.57;;
19113;SDS011;9689;51.052;13.772;2022-12-11T04:54:01;30.65;;;12.00;;
19113;SDS011;9689;51.052;13.772;2022-12-11T04:59:02;28.00;;;12.43;;
19113;SDS011;9689;51.052;13.772;2022-12-11T05:04:05;30.10;;;11.65;;
19113;SDS011;9689;51.052;13.772;2022-12-11T05:09:09;28.13;;;12.20;;
19113;SDS011;9689;51.052;13.772;2022-12-11T05:14:10;30.27;;;13.30;;
19113;SDS011;9689;51.052;13.772;2022-12-11T05:19:13;35.75;;;14.68;;
19113;SDS011;9689;51.052;13.772;2022-12-11T05:24:13;34.58;;;14.55;;
19113;SDS011;9689;51.052;13.772;2022-12-11T05:29:14;37.55;;;16.02;;
19113;SDS011;9689;51.052;13.772;2022-12-11T05:34:16;44.65;;;17.15;;
19113;SDS011;9689;51.052;13.772;2022-12-11T05:39:17;50.67;;;17.05;;
19113;SDS011;9689;51.052;13.772;2022-12-11T05:44:18;37.00;;;15.77;;
19113;SDS011;9689;51.052;13.772;2022-12-11T05:49:21;40.35;;;17.40;;
19113;SDS011;9689;51.052;13.772;2022-12-11T05:54:29;43.50;;;17.23;;
19113;SDS011;9689;51.052;13.772;2022-12-11T05:59:30;39.72;;;16.67;;
19113;SDS011;9689;51.052;13.772;2022-12-11T06:04:32;39.40;;;16.92;;
19113;SDS011;9689;51.052;13.772;2022-12-11T06:09:33;39.65;;;16.15;;
19113;SDS011;9689;51.052;13.772;2022-12-11T06:14:34;33.88;;;14.13;;
19113;SDS011;9689;51.052;13.772;2022-12-11T06:19:36;29.80;;;14.13;;
19113;SDS011;9689;51.052;13.772;2022-12-11T06:24:37;30.88;;;12.27;;
19113;SDS011;9689;51.052;13.772;2022-12-11T06:29:38;30.92;;;14.18;;
19113;SDS011;9689;51.052;13.772;2022-12-11T06:34:41;32.53;;;16.70;;
19113;SDS011;9689;51.052;13.772;2022-12-11T06:39:42;31.85;;;13.80;;
19113;SDS011;9689;51.052;13.772;2022-12-11T06:44:43;29.45;;;12.73;;
19113;SDS011;9689;51.052;13.772;2022-12-11T06:49:46;30.60;;;13.23;;
19113;SDS011;9689;51.052;13.772;2022-12-11T06:54:47;34.25;;;12.95;;
19113;SDS011;9689;51.052;13.772;2022-12-11T06:59:48;26.40;;;12.00;;
19113;SDS011;9689;51.052;13.772;2022-12-11T07:04:50;30.45;;;13.02;;
19113;SDS011;9689;51.052;13.772;2022-12-11T07:09:53;28.42;;;12.10;;
19113;SDS011;9689;51.052;13.772;2022-12-11T07:14:54;30.42;;;15.48;;
19113;SDS011;9689;51.052;13.772;2022-12-11T07:19:56;29.88;;;12.40;;
19113;SDS011;9689;51.052;13.772;2022-12-11T07:24:57;26.27;;;11.23;;
19113;SDS011;9689;51.052;13.772;2022-12-11T07:29:58;29.52;;;12.27;;
19113;SDS011;9689;51.052;13.772;2022-12-11T07:35:01;30.00;;;11.57;;
19113;SDS011;9689;51.052;13.772;2022-12-11T07:40:02;25.65;;;11.75;;
19113;SDS011;9689;51.052;13.772;2022-12-11T07:45:03;27.13;;;11.57;;
19113;SDS011;9689;51.052;13.772;2022-12-11T07:50:07;23.25;;;10.82;;
19113;SDS011;9689;51.052;13.772;2022-12-11T07:55:08;26.77;;;11.50;;
19113;SDS011;9689;51.052;13.772;2022-12-11T08:00:10;31.13;;;12.27;;
19113;SDS011;9689;51.052;13.772;2022-12-11T08:05:12;29.88;;;11.20;;
19113;SDS011;9689;51.052;13.772;2022-12-11T08:10:13;30.90;;;12.23;;
19113;SDS011;9689;51.052;13.772;2022-12-11T08:15:14;25.02;;;11.35;;
19113;SDS011;9689;51.052;13.772;2022-12-11T08:20:16;26.55;;;10.82;;
19113;SDS011;9689;51.052;13.772;2022-12-11T08:25:17;29.35;;;11.85;;
19113;SDS011;9689;51.052;13.772;2022-12-11T08:30:18;27.33;;;11.73;;
19113;SDS011;9689;51.052;13.772;2022-12-11T08:35:20;26.75;;;10.68;;
19113;SDS011;9689;51.052;13.772;2022-12-11T08:40:21;30.50;;;12.30;;
19113;SDS011;9689;51.052;13.772;2022-12-11T08:45:22;24.90;;;10.95;;
19113;SDS011;9689;51.052;13.772;2022-12-11T08:50:24;26.30;;;11.55;;
19113;SDS011;9689;51.052;13.772;2022-12-11T08:55:25;24.73;;;10.48;;
19113;SDS011;9689;51.052;13.772;2022-12-11T09:00:26;31.10;;;13.10;;
19113;SDS011;9689;51.052;13.772;2022-12-11T09:05:28;23.10;;;10.82;;
19113;SDS011;9689;51.052;13.772;2022-12-11T09:10:29;25.15;;;11.15;;
19113;SDS011;9689;51.052;13.772;2022-12-11T09:15:30;27.00;;;11.77;;
19113;SDS011;9689;51.052;13.772;2022-12-11T09:20:32;26.20;;;11.45;;
19113;SDS011;9689;51.052;13.772;2022-12-11T09:25:33;26.13;;;11.68;;
19113;SDS011;9689;51.052;13.772;2022-12-11T09:30:34;29.73;;;11.07;;
19113;SDS011;9689;51.052;13.772;2022-12-11T09:35:36;21.70;;;9.32;;
19113;SDS011;9689;51.052;13.772;2022-12-11T09:40:41;26.33;;;11.85;;
19113;SDS011;9689;51.052;13.772;2022-12-11T09:45:42;22.20;;;9.75;;
19113;SDS011;9689;51.052;13.772;2022-12-11T09:50:44;20.98;;;10.35;;
19113;SDS011;9689;51.052;13.772;2022-12-11T09:55:48;24.27;;;10.90;;
19113;SDS011;9689;51.052;13.772;2022-12-11T10:00:55;24.13;;;10.27;;
19113;SDS011;9689;51.052;13.772;2022-12-11T10:06:02;30.02;;;11.82;;
19113;SDS011;9689;51.052;13.772;2022-12-11T10:11:18;24.83;;;11.15;;
19113;SDS011;9689;51.052;13.772;2022-12-11T10:16:34;25.25;;;10.90;;
19113;SDS011;9689;51.052;13.772;2022-12-11T10:21:40;27.15;;;10.85;;
19113;SDS011;9689;51.052;13.772;2022-12-11T10:26:42;26.65;;;11.27;;
19113;SDS011;9689;51.052;13.772;2022-12-11T10:31:45;23.10;;;10.93;;
19113;SDS011;9689;51.052;13.772;2022-12-11T10:36:54;23.67;;;11.00;;
19113;SDS011;9689;51.052;13.772;2022-12-11T10:41:59;24.60;;;10.63;;
19113;SDS011;9689;51.052;13.772;2022-12-11T10:47:04;25.83;;;10.35;;
19113;SDS011;9689;51.052;13.772;2022-12-11T10:52:09;21.35;;;10.32;;
19113;SDS011;9689;51.052;13.772;2022-12-11T10:57:12;21.58;;;9.63;;
19113;SDS011;9689;51.052;13.772;2022-12-11T11:02:17;23.65;;;10.43;;
19113;SDS011;9689;51.052;13.772;2022-12-11T11:07:24;20.85;;;9.50;;
19113;SDS011;9689;51.052;13.772;2022-12-11T11:12:26;25.35;;;9.63;;
19113;SDS011;9689;51.052;13.772;2022-12-11T11:17:27;18.67;;;8.68;;
19113;SDS011;9689;51.052;13.772;2022-12-11T11:22:36;18.98;;;8.60;;
19113;SDS011;9689;51.052;13.772;2022-12-11T11:27:41;21.90;;;9.35;;
19113;SDS011;9689;51.052;13.772;2022-12-11T11:32:45;22.02;;;9.57;;
19113;SDS011;9689;51.052;13.772;2022-12-11T11:37:52;25.08;;;10.80;;
19113;SDS011;9689;51.052;13.772;2022-12-11T11:43:04;20.80;;;9.85;;
19113;SDS011;9689;51.052;13.772;2022-12-11T11:48:15;23.75;;;10.60;;
19113;SDS011;9689;51.052;13.772;2022-12-11T11:53:29;21.17;;;9.68;;
19113;SDS011;9689;51.052;13.772;2022-12-11T11:58:36;29.98;;;12.02;;
19113;SDS011;9689;51.052;13.772;2022-12-11T12:03:41;25.05;;;10.82;;
19113;SDS011;9689;51.052;13.772;2022-12-11T12:08:45;27.70;;;11.50;;
19113;SDS011;9689;51.052;13.772;2022-12-11T12:13:56;27.45;;;12.07;;
19113;SDS011;9689;51.052;13.772;2022-12-11T12:19:33;26.40;;;11.55;;
19113;SDS011;9689;51.052;13.772;2022-12-11T12:24:45;27.27;;;12.15;;
19113;SDS011;9689;51.052;13.772;2022-12-11T12:29:57;23.35;;;11.25;;
19113;SDS011;9689;51.052;13.772;2022-12-11T12:35:05;26.15;;;12.10;;
19113;SDS011;9689;51.052;13.772;2022-12-11T12:40:19;26.73;;;11.73;;
19113;SDS011;9689;51.052;13.772;2022-12-11T12:45:28;27.80;;;11.43;;
19113;SDS011;9689;51.052;13.772;2022-12-11T12:50:36;31.25;;;11.82;;
19113;SDS011;9689;51.052;13.772;2022-12-11T12:55:41;26.90;;;11.15;;
19113;SDS011;9689;51.052;13.772;2022-12-11T13:00:44;21.23;;;10.63;;
19113;SDS011;9689;51.052;13.772;2022-12-11T13:05:54;24.60;;;10.90;;
19113;SDS011;9689;51.052;13.772;2022-12-11T13:11:00;28.13;;;12.00;;
19113;SDS011;9689;51.052;13.772;2022-12-11T13:16:06;25.80;;;11.73;;
19113;SDS011;9689;51.052;13.772;2022-12-11T13:21:24;27.45;;;11.75;;
19113;SDS011;9689;51.052;13.772;2022-12-11T13:26:29;27.77;;;12.15;;
19113;SDS011;9689;51.052;13.772;2022-12-11T13:31:35;23.55;;;10.60;;
19113;SDS011;9689;51.052;13.772;2022-12-11T13:36:38;24.98;;;11.38;;
19113;SDS011;9689;51.052;13.772;2022-12-11T13:41:43;23.55;;;11.27;;
19113;SDS011;9689;51.052;13.772;2022-12-11T13:46:46;26.25;;;10.52;;
19113;SDS011;9689;51.052;13.772;2022-12-11T13:51:52;26.02;;;11.00;;
19113;SDS011;9689;51.052;13.772;2022-12-11T13:56:57;24.73;;;11.15;;
19113;SDS011;9689;51.052;13.772;2022-12-11T14:02:01;25.13;;;10.77;;
19113;SDS011;9689;51.052;13.772;2022-12-11T14:07:05;24.23;;;10.38;;
19113;SDS011;9689;51.052;13.772;2022-12-11T14:12:13;24.95;;;11.50;;
19113;SDS011;9689;51.052;13.772;2022-12-11T14:17:22;27.75;;;12.40;;
19113;SDS011;9689;51.052;13.772;2022-12-11T14:22:26;34.80;;;12.45;;
19113;SDS011;9689;51.052;13.772;2022-12-11T14:27:29;28.45;;;12.93;;
19113;SDS011;9689;51.052;13.772;2022-12-11T14:32:31;30.67;;;13.30;;
19113;SDS011;9689;51.052;13.772;2022-12-11T14:37:35;27.13;;;12.82;;
19113;SDS011;9689;51.052;13.772;2022-12-11T14:42:38;32.65;;;13.23;;
19113;SDS011;9689;51.052;13.772;2022-12-11T14:47:44;36.95;;;14.75;;
19113;SDS011;9689;51.052;13.772;2022-12-11T14:52:45;29.15;;;13.45;;
19113;SDS011;9689;51.052;13.772;2022-12-11T14:57:52;27.67;;;12.90;;
19113;SDS011;9689;51.052;13.772;2022-12-11T15:02:56;31.63;;;13.23;;
19113;SDS011;9689;51.052;13.772;2022-12-11T15:08:00;24.77;;;11.60;;
19113;SDS011;9689;51.052;13.772;2022-12-11T15:13:03;31.50;;;13.73;;
19113;SDS011;9689;51.052;13.772;2022-12-11T15:18:05;27.98;;;12.90;;
19113;SDS011;9689;51.052;13.772;2022-12-11T15:23:13;26.02;;;12.85;;
19113;SDS011;9689;51.052;13.772;2022-12-11T15:28:28;26.48;;;12.10;;
19113;SDS011;9689;51.052;13.772;2022-12-11T15:33:31;24.90;;;11.98;;
19113;SDS011;9689;51.052;13.772;2022-12-11T15:38:34;25.98;;;11.68;;
19113;SDS011;9689;51.052;13.772;2022-12-11T15:43:40;30.83;;;13.30;;
19113;SDS011;9689;51.052;13.772;2022-12-11T15:48:42;29.10;;;13.40;;
19113;SDS011;9689;51.052;13.772;2022-12-11T15:53:42;27.33;;;12.25;;
19113;SDS011;9689;51.052;13.772;2022-12-11T15:58:45;25.27;;;13.25;;
19113;SDS011;9689;51.052;13.772;2022-12-11T16:03:47;31.85;;;14.50;;
19113;SDS011;9689;51.052;13.772;2022-12-11T16:08:49;30.20;;;13.90;;
19113;SDS011;9689;51.052;13.772;2022-12-11T16:13:52;28.58;;;12.00;;
19113;SDS011;9689;51.052;13.772;2022-12-11T16:18:53;30.90;;;14.00;;
19113;SDS011;9689;51.052;13.772;2022-12-11T16:23:54;31.70;;;14.30;;
19113;SDS011;9689;51.052;13.772;2022-12-11T16:29:00;37.30;;;14.18;;
19113;SDS011;9689;51.052;13.772;2022-12-11T16:34:01;30.27;;;14.07;;
19113;SDS011;9689;51.052;13.772;2022-12-11T16:39:02;31.52;;;13.75;;
19113;SDS011;9689;51.052;13.772;2022-12-11T16:44:04;28.90;;;13.70;;
19113;SDS011;9689;51.052;13.772;2022-12-11T16:49:06;36.55;;;14.45;;
19113;SDS011;9689;51.052;13.772;2022-12-11T16:54:07;27.10;;;14.15;;
19113;SDS011;9689;51.052;13.772;2022-12-11T16:59:09;33.35;;;14.68;;
19113;SDS011;9689;51.052;13.772;2022-12-11T17:04:11;33.67;;;14.35;;
19113;SDS011;9689;51.052;13.772;2022-12-11T17:09:12;36.55;;;15.35;;
19113;SDS011;9689;51.052;13.772;2022-12-11T17:14:14;32.25;;;14.52;;
19113;SDS011;9689;51.052;13.772;2022-12-11T17:19:16;31.15;;;13.55;;
19113;SDS011;9689;51.052;13.772;2022-12-11T17:24:16;37.95;;;15.00;;
19113;SDS011;9689;51.052;13.772;2022-12-11T17:29:19;31.75;;;13.57;;
19113;SDS011;9689;51.052;13.772;2022-12-11T17:34:20;34.17;;;15.35;;
19113;SDS011;9689;51.052;13.772;2022-12-11T17:39:22;33.38;;;15.25;;
19113;SDS011;9689;51.052;13.772;2022-12-11T17:44:24;31.73;;;14.45;;
19113;SDS011;9689;51.052;13.772;2022-12-11T17:49:28;30.38;;;13.43;;
19113;SDS011;9689;51.052;13.772;2022-12-11T17:54:29;30.70;;;13.55;;
19113;SDS011;9689;51.052;13.772;2022-12-11T17:59:31;29.17;;;14.35;;
19113;SDS011;9689;51.052;13.772;2022-12-11T18:04:32;29.90;;;13.95;;
19113;SDS011;9689;51.052;13.772;2022-12-11T18:09:33;38.30;;;15.07;;
19113;SDS011;9689;51.052;13.772;2022-12-11T18:14:36;31.48;;;14.32;;
19113;SDS011;9689;51.052;13.772;2022-12-11T18:19:37;32.38;;;14.70;;
19113;SDS011;9689;51.052;13.772;2022-12-11T18:24:44;35.13;;;18.70;;
19113;SDS011;9689;51.052;13.772;2022-12-11T18:29:46;31.45;;;14.35;;
19113;SDS011;9689;51.052;13.772;2022-12-11T18:34:47;31.23;;;15.15;;
19113;SDS011;9689;51.052;13.772;2022-12-11T18:39:48;34.22;;;14.75;;
19113;SDS011;9689;51.052;13.772;2022-12-11T18:44:50;35.55;;;15.25;;
19113;SDS011;9689;51.052;13.772;2022-12-11T18:49:51;35.30;;;15.05;;
19113;SDS011;9689;51.052;13.772;2022-12-11T18:54:52;38.40;;;15.98;;
19113;SDS011;9689;51.052;13.772;2022-12-11T18:59:55;34.10;;;15.55;;
19113;SDS011;9689;51.052;13.772;2022-12-11T19:05:02;36.35;;;14.70;;
19113;SDS011;9689;51.052;13.772;2022-12-11T19:10:05;34.92;;;15.55;;
19113;SDS011;9689;51.052;13.772;2022-12-11T19:15:08;39.70;;;14.95;;
19113;SDS011;9689;51.052;13.772;2022-12-11T19:20:10;34.05;;;14.68;;
19113;SDS011;9689;51.052;13.772;2022-12-11T19:25:32;36.85;;;16.45;;
19113;SDS011;9689;51.052;13.772;2022-12-11T19:30:34;39.78;;;15.95;;
19113;SDS011;9689;51.052;13.772;2022-12-11T19:35:36;31.85;;;14.05;;
19113;SDS011;9689;51.052;13.772;2022-12-11T19:40:38;35.00;;;14.95;;
19113;SDS011;9689;51.052;13.772;2022-12-11T19:45:41;35.92;;;15.40;;
19113;SDS011;9689;51.052;13.772;2022-12-11T19:50:44;41.20;;;15.38;;
19113;SDS011;9689;51.052;13.772;2022-12-11T19:55:47;39.60;;;15.30;;
19113;SDS011;9689;51.052;13.772;2022-12-11T20:00:50;37.63;;;16.45;;
19113;SDS011;9689;51.052;13.772;2022-12-11T20:05:58;33.95;;;14.75;;
19113;SDS011;9689;51.052;13.772;2022-12-11T20:11:02;40.70;;;16.75;;
19113;SDS011;9689;51.052;13.772;2022-12-11T20:16:08;34.15;;;15.13;;
19113;SDS011;9689;51.052;13.772;2022-12-11T20:21:12;40.10;;;16.90;;
19113;SDS011;9689;51.052;13.772;2022-12-11T20:26:14;35.83;;;15.57;;
19113;SDS011;9689;51.052;13.772;2022-12-11T20:31:19;38.40;;;16.02;;
19113;SDS011;9689;51.052;13.772;2022-12-11T20:36:21;39.55;;;15.65;;
19113;SDS011;9689;51.052;13.772;2022-12-11T20:41:23;39.65;;;16.40;;
19113;SDS011;9689;51.052;13.772;2022-12-11T20:46:27;42.55;;;17.17;;
19113;SDS011;9689;51.052;13.772;2022-12-11T20:51:28;36.70;;;16.15;;
19113;SDS011;9689;51.052;13.772;2022-12-11T20:56:30;41.95;;;16.27;;
19113;SDS011;9689;51.052;13.772;2022-12-11T21:01:33;39.35;;;15.95;;
19113;SDS011;9689;51.052;13.772;2022-12-11T21:06:34;37.88;;;16.05;;
19113;SDS011;9689;51.052;13.772;2022-12-11T21:11:37;41.90;;;16.33;;
19113;SDS011;9689;51.052;13.772;2022-12-11T21:16:39;42.45;;;16.20;;
19113;SDS011;9689;51.052;13.772;2022-12-11T21:21:41;39.80;;;15.75;;
19113;SDS011;9689;51.052;13.772;2022-12-11T21:26:43;39.47;;;16.48;;
19113;SDS011;9689;51.052;13.772;2022-12-11T21:31:46;37.05;;;14.68;;
19113;SDS011;9689;51.052;13.772;2022-12-11T21:36:47;38.75;;;16.08;;
19113;SDS011;9689;51.052;13.772;2022-12-11T21:41:55;44.72;;;15.68;;
19113;SDS011;9689;51.052;13.772;2022-12-11T21:47:00;41.13;;;16.92;;
19113;SDS011;9689;51.052;13.772;2022-12-11T21:52:01;47.13;;;18.75;;
19113;SDS011;9689;51.052;13.772;2022-12-11T21:57:03;42.58;;;16.77;;
19113;SDS011;9689;51.052;13.772;2022-12-11T22:02:06;39.20;;;14.98;;
19113;SDS011;9689;51.052;13.772;2022-12-11T22:07:07;42.10;;;21.20;;
19113;SDS011;9689;51.052;13.772;2022-12-11T22:12:08;37.97;;;16.60;;
19113;SDS011;9689;51.052;13.772;2022-12-11T22:17:12;42.83;;;21.53;;
19113;SDS011;9689;51.052;13.772;2022-12-11T22:22:13;41.53;;;16.27;;
19113;SDS011;9689;51.052;13.772;2022-12-11T22:27:14;35.83;;;15.50;;
19113;SDS011;9689;51.052;13.772;2022-12-11T22:32:23;36.22;;;15.18;;
19113;SDS011;9689;51.052;13.772;2022-12-11T22:37:24;39.53;;;16.58;;
19113;SDS011;9689;51.052;13.772;2022-12-11T22:42:25;38.58;;;16.00;;
19113;SDS011;9689;51.052;13.772;2022-12-11T22:47:28;40.20;;;15.98;;
19113;SDS011;9689;51.052;13.772;2022-12-11T22:52:29;41.47;;;15.73;;
19113;SDS011;9689;51.052;13.772;2022-12-11T22:57:31;37.22;;;16.05;;
19113;SDS011;9689;51.052;13.772;2022-12-11T23:02:36;43.08;;;18.48;;
19113;SDS011;9689;51.052;13.772;2022-12-11T23:07:37;42.78;;;17.17;;
19113;SDS011;9689;51.052;13.772;2022-12-11T23:12:39;45.17;;;18.30;;
19113;SDS011;9689;51.052;13.772;2022-12-11T23:17:41;46.72;;;17.67;;
19113;SDS011;9689;51.052;13.772;2022-12-11T23:22:42;49.42;;;17.00;;
19113;SDS011;9689;51.052;13.772;2022-12-11T23:27:43;40.67;;;17.98;;
19113;SDS011;9689;51.052;13.772;2022-12-11T23:32:45;43.00;;;16.83;;
19113;SDS011;9689;51.052;13.772;2022-12-11T23:37:46;45.38;;;17.05;;
19113;SDS011;9689;51.052;13.772;2022-12-11T23:42:47;50.95;;;18.48;;
19113;SDS011;9689;51.052;13.772;2022-12-11T23:47:50;43.65;;;17.15;;
19113;SDS011;9689;51.052;13.772;2022-12-11T23:52:51;47.17;;;17.63;;
19113;SDS011;9689;51.052;13.772;2022-12-11T23:57:52;47.58;;;17.65;;
